createdAt,value
2023-12-18T00:01:47.940Z,21.83
2023-12-18T00:04:33.800Z,25.08
2023-12-18T00:07:18.893Z,26.85
2023-12-18T00:10:04.721Z,21.75
2023-12-18T00:12:50.173Z,20.52
2023-12-18T00:15:35.613Z,26.02
2023-12-18T00:18:21.061Z,19.33
2023-12-18T00:21:06.536Z,22.23
2023-12-18T00:23:51.715Z,21.60
2023-12-18T00:26:37.259Z,20.52
2023-12-18T00:29:22.823Z,26.85
2023-12-18T00:32:08.860Z,29.15
2023-12-18T00:34:54.486Z,26.90
2023-12-18T00:37:40.644Z,26.95
2023-12-18T00:40:26.386Z,22.83
2023-12-18T00:43:13.055Z,25.88
2023-12-18T00:45:58.267Z,17.60
2023-12-18T00:48:44.042Z,22.55
2023-12-18T00:51:29.932Z,21.15
2023-12-18T00:54:15.298Z,22.15
2023-12-18T00:57:00.548Z,21.85
2023-12-18T00:59:46.049Z,25.02
2023-12-18T01:02:31.540Z,22.38
2023-12-18T01:05:17.031Z,23.65
2023-12-18T01:08:02.452Z,23.42
2023-12-18T01:10:48.392Z,25.60
2023-12-18T01:13:33.765Z,23.77
2023-12-18T01:16:19.099Z,22.80
2023-12-18T01:19:05.344Z,23.13
2023-12-18T01:21:50.832Z,21.25
2023-12-18T01:24:36.477Z,31.02
2023-12-18T01:27:22.140Z,23.35
2023-12-18T01:30:10.132Z,28.55
2023-12-18T01:32:55.872Z,22.05
2023-12-18T01:35:41.378Z,24.13
2023-12-18T01:38:26.973Z,21.17
2023-12-18T01:41:12.682Z,26.02
2023-12-18T01:43:57.995Z,30.38
2023-12-18T01:46:45.337Z,26.13
2023-12-18T01:49:31.303Z,24.92
2023-12-18T01:52:18.048Z,25.50
2023-12-18T01:55:04.648Z,21.05
2023-12-18T01:57:51.684Z,26.50
2023-12-18T02:00:37.347Z,22.30
2023-12-18T02:03:24.490Z,26.77
2023-12-18T02:06:11.028Z,26.40
2023-12-18T02:08:58.094Z,23.05
2023-12-18T02:11:46.858Z,22.20
2023-12-18T02:14:32.675Z,27.52
2023-12-18T02:17:18.293Z,26.00
2023-12-18T02:20:08.083Z,26.15
2023-12-18T02:22:54.172Z,25.42
2023-12-18T02:25:39.506Z,22.17
2023-12-18T02:28:25.853Z,26.23
2023-12-18T02:31:15.870Z,29.45
2023-12-18T02:34:01.541Z,23.45
2023-12-18T02:36:47.194Z,25.15
2023-12-18T02:39:32.782Z,23.55
2023-12-18T02:42:18.357Z,25.67
2023-12-18T02:45:04.615Z,20.73
2023-12-18T02:47:50.347Z,23.58
2023-12-18T02:50:35.778Z,26.38
2023-12-18T02:53:21.182Z,24.95
2023-12-18T02:56:07.470Z,30.55
2023-12-18T02:58:53.204Z,26.08
2023-12-18T03:01:38.806Z,26.45
2023-12-18T03:04:24.589Z,24.48
2023-12-18T03:07:10.401Z,27.02
2023-12-18T03:09:56.017Z,26.65
2023-12-18T03:12:41.596Z,24.10
2023-12-18T03:15:27.553Z,29.40
2023-12-18T03:18:13.301Z,22.75
2023-12-18T03:20:58.736Z,27.25
2023-12-18T03:23:44.023Z,28.10
2023-12-18T03:26:29.516Z,33.28
2023-12-18T03:29:15.389Z,24.83
2023-12-18T03:32:01.984Z,22.38
2023-12-18T03:34:47.362Z,25.83
2023-12-18T03:37:32.892Z,21.17
2023-12-18T03:40:18.322Z,25.00
2023-12-18T03:43:03.683Z,25.02
2023-12-18T03:45:49.443Z,23.65
2023-12-18T03:48:35.012Z,27.15
2023-12-18T03:51:20.914Z,26.90
2023-12-18T03:54:06.108Z,27.10
2023-12-18T03:56:51.832Z,25.45
2023-12-18T03:59:37.164Z,29.38
2023-12-18T04:02:23.680Z,23.88
2023-12-18T04:05:09.267Z,35.72
2023-12-18T04:07:55.018Z,28.83
2023-12-18T04:10:40.357Z,25.02
2023-12-18T04:13:25.872Z,25.42
2023-12-18T04:16:11.604Z,24.05
2023-12-18T04:18:58.616Z,27.15
2023-12-18T04:21:44.464Z,23.63
2023-12-18T04:24:29.902Z,20.95
2023-12-18T04:27:15.879Z,26.80
2023-12-18T04:30:01.027Z,24.92
2023-12-18T04:32:46.688Z,23.98
2023-12-18T04:35:32.019Z,24.35
2023-12-18T04:38:17.852Z,22.52
2023-12-18T04:41:03.392Z,23.60
2023-12-18T04:43:49.806Z,24.88
2023-12-18T04:46:36.575Z,21.38
2023-12-18T04:49:22.061Z,28.65
2023-12-18T04:52:07.289Z,32.88
2023-12-18T04:54:54.810Z,28.80
2023-12-18T04:57:40.177Z,23.90
2023-12-18T05:00:25.503Z,27.95
2023-12-18T05:03:11.152Z,26.92
2023-12-18T05:05:56.580Z,26.08
2023-12-18T05:08:42.148Z,33.53
2023-12-18T05:11:27.884Z,29.20
2023-12-18T05:14:13.142Z,27.98
2023-12-18T05:16:58.961Z,29.65
2023-12-18T05:19:44.278Z,37.33
2023-12-18T05:22:29.838Z,30.48
2023-12-18T05:25:15.117Z,29.13
2023-12-18T05:28:00.609Z,27.20
2023-12-18T05:30:46.412Z,32.45
2023-12-18T05:33:31.717Z,32.78
2023-12-18T05:36:17.458Z,28.50
2023-12-18T05:39:02.902Z,32.58
2023-12-18T05:41:48.414Z,29.38
2023-12-18T05:44:33.864Z,28.92
2023-12-18T05:47:19.321Z,27.00
2023-12-18T05:50:05.242Z,35.03
2023-12-18T05:52:50.746Z,32.15
2023-12-18T05:55:36.019Z,32.28
2023-12-18T05:58:21.691Z,28.98
2023-12-18T06:01:07.808Z,28.95
2023-12-18T06:03:53.751Z,25.95
2023-12-18T06:06:39.830Z,24.35
2023-12-18T06:09:25.256Z,28.40
2023-12-18T06:12:12.032Z,24.13
2023-12-18T06:14:57.923Z,25.35
2023-12-18T06:17:43.261Z,29.42
2023-12-18T06:20:28.879Z,29.52
2023-12-18T06:23:14.342Z,25.60
2023-12-18T06:26:02.093Z,27.58
2023-12-18T06:28:48.240Z,24.60
2023-12-18T06:31:34.860Z,22.50
2023-12-18T06:34:20.822Z,29.75
2023-12-18T06:37:06.473Z,32.78
2023-12-18T06:39:51.993Z,25.38
2023-12-18T06:42:37.789Z,24.83
2023-12-18T06:45:23.469Z,30.77
2023-12-18T06:48:09.201Z,25.88
2023-12-18T06:50:54.680Z,30.65
2023-12-18T06:53:40.428Z,30.05
2023-12-18T06:56:26.061Z,29.75
2023-12-18T06:59:14.595Z,31.10
2023-12-18T07:02:00.203Z,26.13
2023-12-18T07:04:45.930Z,30.05
2023-12-18T07:07:31.104Z,32.28
2023-12-18T07:10:16.714Z,23.98
2023-12-18T07:13:02.319Z,28.75
2023-12-18T07:15:47.818Z,25.13
2023-12-18T07:18:33.374Z,31.30
2023-12-18T07:21:18.601Z,24.98
2023-12-18T07:24:04.426Z,27.92
2023-12-18T07:26:50.197Z,27.73
2023-12-18T07:29:35.891Z,27.25
2023-12-18T07:32:22.727Z,28.80
2023-12-18T07:35:08.507Z,31.50
2023-12-18T07:37:53.776Z,30.55
2023-12-18T07:40:39.313Z,31.27
2023-12-18T07:43:24.786Z,26.58
2023-12-18T07:46:20.103Z,28.33
2023-12-18T07:49:05.616Z,26.80
2023-12-18T07:51:50.941Z,26.10
2023-12-18T07:54:36.461Z,26.88
2023-12-18T07:57:22.378Z,23.50
2023-12-18T08:00:09.863Z,28.25
2023-12-18T08:02:58.371Z,27.55
2023-12-18T08:05:44.259Z,30.70
2023-12-18T08:08:29.964Z,22.50
2023-12-18T08:11:15.508Z,29.05
2023-12-18T08:14:00.945Z,30.95
2023-12-18T08:16:46.531Z,30.17
2023-12-18T08:19:32.292Z,28.70
2023-12-18T08:22:18.181Z,27.77
2023-12-18T08:25:04.124Z,27.40
2023-12-18T08:27:49.743Z,26.40
2023-12-18T08:30:35.317Z,23.15
2023-12-18T08:33:21.719Z,25.75
2023-12-18T08:36:07.880Z,26.58
2023-12-18T08:38:53.333Z,24.73
2023-12-18T08:41:39.825Z,23.50
2023-12-18T08:44:25.544Z,23.55
2023-12-18T08:47:11.122Z,18.52
2023-12-18T08:49:56.542Z,23.83
2023-12-18T08:52:42.176Z,25.85
2023-12-18T08:55:27.574Z,24.83
2023-12-18T08:58:13.053Z,27.92
2023-12-18T09:00:59.112Z,24.58
2023-12-18T09:03:44.866Z,30.73
2023-12-18T09:06:30.370Z,26.67
2023-12-18T09:09:15.736Z,26.50
2023-12-18T09:12:00.988Z,34.70
2023-12-18T09:14:46.799Z,26.73
2023-12-18T09:17:31.983Z,24.95
2023-12-18T09:20:18.140Z,27.50
2023-12-18T09:23:09.756Z,26.95
2023-12-18T09:25:55.456Z,26.70
2023-12-18T09:28:41.085Z,23.38
2023-12-18T09:31:26.393Z,25.83
2023-12-18T09:34:12.098Z,22.60
2023-12-18T09:36:57.970Z,27.33
2023-12-18T09:39:43.977Z,29.48
2023-12-18T09:42:29.234Z,29.33
2023-12-18T09:45:16.866Z,27.73
2023-12-18T09:48:02.718Z,27.45
2023-12-18T09:50:48.199Z,26.27
2023-12-18T09:53:34.433Z,28.02
2023-12-18T09:56:24.281Z,22.75
2023-12-18T09:59:09.462Z,27.67
2023-12-18T10:01:55.534Z,29.33
2023-12-18T10:04:42.522Z,29.80
2023-12-18T10:07:27.950Z,26.67
2023-12-18T10:10:13.317Z,23.52
2023-12-18T10:12:58.735Z,25.13
2023-12-18T10:15:44.525Z,26.13
2023-12-18T10:18:30.164Z,22.35
2023-12-18T10:21:24.022Z,24.15
2023-12-18T10:24:10.657Z,28.70
2023-12-18T10:26:56.206Z,28.70
2023-12-18T10:29:41.963Z,32.03
2023-12-18T10:32:28.763Z,23.33
2023-12-18T10:35:14.298Z,27.90
2023-12-18T10:38:01.794Z,27.80
2023-12-18T10:40:47.739Z,25.10
2023-12-18T10:43:34.871Z,27.23
2023-12-18T10:46:23.247Z,28.50
2023-12-18T10:49:09.482Z,28.15
2023-12-18T10:51:56.432Z,25.23
2023-12-18T10:54:45.882Z,28.73
2023-12-18T10:57:33.313Z,27.17
2023-12-18T11:00:20.351Z,34.33
2023-12-18T11:03:06.643Z,26.05
2023-12-18T11:05:53.775Z,34.20
2023-12-18T11:08:39.102Z,29.48
2023-12-18T11:11:25.805Z,36.17
2023-12-18T11:14:14.271Z,33.17
2023-12-18T11:17:12.686Z,27.92
2023-12-18T11:20:22.932Z,36.45
2023-12-18T11:23:10.435Z,32.45
2023-12-18T11:25:57.189Z,27.25
2023-12-18T11:28:49.092Z,31.85
2023-12-18T11:31:34.482Z,27.98
2023-12-18T11:34:22.372Z,26.98
2023-12-18T11:37:09.750Z,30.60
2023-12-18T11:39:56.615Z,26.20
2023-12-18T11:42:48.475Z,27.77
2023-12-18T11:45:37.371Z,28.48
2023-12-18T11:48:27.266Z,31.25
2023-12-18T11:51:13.806Z,31.65
2023-12-18T11:54:00.354Z,28.75
2023-12-18T11:56:47.996Z,29.00
2023-12-18T11:59:34.676Z,26.92
2023-12-18T12:02:21.831Z,29.17
2023-12-18T12:05:07.636Z,28.40
2023-12-18T12:07:54.107Z,28.60
2023-12-18T12:10:41.012Z,31.70
2023-12-18T12:13:28.820Z,27.83
2023-12-18T12:16:20.617Z,27.60
2023-12-18T12:19:07.454Z,28.00
2023-12-18T12:21:53.064Z,27.42
2023-12-18T12:24:43.725Z,28.52
2023-12-18T12:27:30.764Z,27.80
2023-12-18T12:30:18.109Z,32.17
2023-12-18T12:33:04.677Z,26.45
2023-12-18T12:35:50.359Z,23.98
2023-12-18T12:38:40.841Z,24.63
2023-12-18T12:41:26.247Z,24.55
2023-12-18T12:44:11.704Z,25.73
2023-12-18T12:46:57.265Z,24.23
2023-12-18T12:49:52.581Z,28.85
2023-12-18T12:52:38.936Z,24.52
2023-12-18T12:55:24.441Z,24.63
2023-12-18T12:58:11.442Z,25.05
2023-12-18T13:00:59.009Z,28.40
2023-12-18T13:03:44.406Z,30.10
2023-12-18T13:06:30.452Z,29.25
2023-12-18T13:09:16.075Z,28.73
2023-12-18T13:12:05.371Z,25.35
2023-12-18T13:14:51.380Z,23.00
2023-12-18T13:17:36.980Z,23.67
2023-12-18T13:20:27.875Z,22.80
2023-12-18T13:23:15.727Z,24.05
2023-12-18T13:26:01.339Z,26.98
2023-12-18T13:28:47.027Z,26.00
2023-12-18T13:31:34.567Z,26.10
2023-12-18T13:34:20.164Z,24.63
2023-12-18T13:37:07.712Z,23.63
2023-12-18T13:39:53.374Z,26.48
2023-12-18T13:42:38.746Z,24.77
2023-12-18T13:45:24.458Z,23.60
2023-12-18T13:48:10.359Z,25.33
2023-12-18T13:50:55.663Z,27.40
2023-12-18T13:53:41.331Z,26.48
2023-12-18T13:56:27.855Z,24.73
2023-12-18T13:59:13.261Z,24.90
2023-12-18T14:01:59.017Z,24.17
2023-12-18T14:04:45.987Z,24.23
2023-12-18T14:07:32.256Z,25.55
2023-12-18T14:10:18.088Z,26.70
2023-12-18T14:13:04.206Z,32.20
2023-12-18T14:15:49.775Z,22.65
2023-12-18T14:18:35.975Z,23.33
2023-12-18T14:21:22.884Z,25.27
2023-12-18T14:24:08.594Z,26.80
2023-12-18T14:26:54.030Z,24.83
2023-12-18T14:29:39.678Z,26.95
2023-12-18T14:32:25.465Z,25.42
2023-12-18T14:35:11.349Z,26.98
2023-12-18T14:37:57.265Z,24.45
2023-12-18T14:40:42.346Z,28.45
2023-12-18T14:43:29.598Z,25.65
2023-12-18T14:46:17.135Z,27.92
2023-12-18T14:49:03.335Z,22.23
2023-12-18T14:51:49.071Z,29.52
2023-12-18T14:54:34.814Z,28.35
2023-12-18T14:57:20.039Z,24.35
2023-12-18T15:00:06.336Z,24.02
2023-12-18T15:02:51.799Z,26.75
2023-12-18T15:05:37.346Z,23.70
2023-12-18T15:08:23.054Z,28.08
2023-12-18T15:11:08.586Z,23.42
2023-12-18T15:13:54.101Z,26.10
2023-12-18T15:16:39.885Z,29.67
2023-12-18T15:19:25.538Z,30.52
2023-12-18T15:22:11.682Z,28.02
2023-12-18T15:24:56.989Z,31.30
2023-12-18T15:27:44.194Z,31.52
2023-12-18T15:30:29.925Z,25.98
2023-12-18T15:33:17.959Z,30.70
2023-12-18T15:36:12.787Z,34.38
2023-12-18T15:39:01.720Z,25.70
2023-12-18T15:41:47.658Z,30.77
2023-12-18T15:44:34.953Z,23.45
2023-12-18T15:47:21.773Z,28.25
2023-12-18T15:50:08.012Z,30.02
2023-12-18T15:52:53.759Z,33.00
2023-12-18T15:55:39.341Z,23.85
2023-12-18T15:58:24.918Z,26.77
2023-12-18T16:01:13.065Z,29.30
2023-12-18T16:03:58.711Z,32.45
2023-12-18T16:06:44.508Z,26.73
2023-12-18T16:09:30.221Z,25.25
2023-12-18T16:12:15.702Z,27.85
2023-12-18T16:15:01.290Z,26.15
2023-12-18T16:17:46.471Z,25.73
2023-12-18T16:20:31.859Z,28.13
2023-12-18T16:23:20.415Z,29.15
2023-12-18T16:26:05.886Z,31.55
2023-12-18T16:28:53.506Z,26.23
2023-12-18T16:31:39.156Z,25.40
2023-12-18T16:34:27.755Z,27.77
2023-12-18T16:37:14.694Z,34.38
2023-12-18T16:40:00.647Z,34.05
2023-12-18T16:42:46.631Z,32.88
2023-12-18T16:45:32.774Z,28.35
2023-12-18T16:48:18.254Z,34.60
2023-12-18T16:51:04.267Z,33.20
2023-12-18T16:53:49.763Z,36.25
2023-12-18T16:56:35.971Z,26.40
2023-12-18T16:59:22.750Z,34.08
2023-12-18T17:02:08.296Z,33.72
2023-12-18T17:04:53.941Z,36.80
2023-12-18T17:07:39.809Z,40.33
2023-12-18T17:10:25.054Z,41.47
2023-12-18T17:13:13.609Z,39.47
2023-12-18T17:15:58.987Z,40.08
2023-12-18T17:18:44.320Z,40.33
2023-12-18T17:21:29.949Z,37.53
2023-12-18T17:24:16.173Z,37.65
2023-12-18T17:27:01.436Z,38.85
2023-12-18T17:29:47.389Z,48.92
2023-12-18T17:32:32.570Z,44.97
2023-12-18T17:35:18.214Z,36.83
2023-12-18T17:38:03.863Z,46.97
2023-12-18T17:40:50.371Z,41.50
2023-12-18T17:43:35.927Z,41.20
2023-12-18T17:46:21.830Z,37.05
2023-12-18T17:49:07.417Z,42.72
2023-12-18T17:51:53.453Z,38.35
2023-12-18T17:54:38.911Z,35.63
2023-12-18T17:57:24.460Z,39.28
2023-12-18T18:00:10.459Z,36.05
2023-12-18T18:02:55.863Z,36.53
2023-12-18T18:05:41.614Z,38.63
2023-12-18T18:08:28.124Z,39.25
2023-12-18T18:11:13.470Z,38.85
2023-12-18T18:14:00.753Z,43.50
2023-12-18T18:16:46.111Z,40.58
2023-12-18T18:19:31.829Z,36.17
2023-12-18T18:22:18.144Z,41.08
2023-12-18T18:25:03.968Z,38.50
2023-12-18T18:27:49.786Z,38.60
2023-12-18T18:30:35.312Z,37.83
2023-12-18T18:33:20.801Z,41.90
2023-12-18T18:36:06.620Z,38.35
2023-12-18T18:38:52.103Z,43.22
2023-12-18T18:41:37.494Z,48.65
2023-12-18T18:44:23.294Z,43.03
2023-12-18T18:47:08.529Z,38.08
2023-12-18T18:49:54.049Z,42.10
2023-12-18T18:52:39.805Z,41.72
2023-12-18T18:55:25.081Z,44.50
2023-12-18T18:58:11.457Z,45.97
2023-12-18T19:00:57.455Z,40.83
2023-12-18T19:03:43.333Z,37.67
2023-12-18T19:06:28.886Z,43.35
2023-12-18T19:09:14.484Z,48.95
2023-12-18T19:12:00.120Z,43.58
2023-12-18T19:14:45.556Z,40.22
2023-12-18T19:17:31.048Z,42.22
2023-12-18T19:20:16.679Z,41.03
2023-12-18T19:23:02.438Z,39.75
2023-12-18T19:25:47.882Z,48.03
2023-12-18T19:28:33.473Z,41.75
2023-12-18T19:31:19.057Z,46.28
2023-12-18T19:34:04.595Z,39.80
2023-12-18T19:36:49.939Z,45.47
2023-12-18T19:39:35.439Z,38.78
2023-12-18T19:42:21.350Z,46.72
2023-12-18T19:45:07.953Z,42.47
2023-12-18T19:47:53.393Z,57.60
2023-12-18T19:50:39.295Z,45.42
2023-12-18T19:53:24.775Z,41.95
2023-12-18T19:56:10.154Z,48.83
2023-12-18T19:58:55.445Z,45.65
2023-12-18T20:01:41.252Z,43.33
2023-12-18T20:04:26.727Z,43.85
2023-12-18T20:07:12.288Z,47.72
2023-12-18T20:09:58.425Z,59.30
2023-12-18T20:12:44.022Z,55.97
2023-12-18T20:15:29.378Z,49.60
2023-12-18T20:18:19.901Z,55.85
2023-12-18T20:21:05.390Z,41.83
2023-12-18T20:23:51.719Z,47.83
2023-12-18T20:26:36.990Z,48.33
2023-12-18T20:29:22.775Z,43.80
2023-12-18T20:32:08.466Z,51.83
2023-12-18T20:34:54.087Z,50.78
2023-12-18T20:37:39.526Z,50.08
2023-12-18T20:40:25.599Z,47.10
2023-12-18T20:43:11.045Z,52.78
2023-12-18T20:45:57.123Z,49.50
2023-12-18T20:48:42.793Z,53.60
2023-12-18T20:51:28.874Z,54.38
2023-12-18T20:54:14.151Z,50.90
2023-12-18T20:56:59.562Z,52.45
2023-12-18T20:59:44.927Z,54.28
2023-12-18T21:02:30.769Z,55.95
2023-12-18T21:05:16.032Z,47.47
2023-12-18T21:08:01.707Z,49.80
2023-12-18T21:10:47.258Z,55.58
2023-12-18T21:13:33.179Z,54.80
2023-12-18T21:16:18.895Z,56.53
2023-12-18T21:19:04.203Z,51.55
2023-12-18T21:21:51.945Z,54.20
2023-12-18T21:24:37.800Z,59.38
2023-12-18T21:27:23.246Z,51.80
2023-12-18T21:30:10.041Z,51.15
2023-12-18T21:32:55.829Z,55.10
2023-12-18T21:35:41.073Z,63.97
2023-12-18T21:38:27.080Z,60.13
2023-12-18T21:41:12.392Z,57.25
2023-12-18T21:43:58.156Z,54.42
2023-12-18T21:46:44.102Z,52.72
2023-12-18T21:49:29.409Z,52.72
2023-12-18T21:52:15.913Z,53.03
2023-12-18T21:55:01.525Z,54.90
2023-12-18T21:57:47.084Z,53.97
2023-12-18T22:00:33.815Z,63.90
2023-12-18T22:03:19.751Z,52.65
2023-12-18T22:06:05.782Z,58.33
2023-12-18T22:08:51.198Z,57.78
2023-12-18T22:11:36.554Z,63.08
2023-12-18T22:14:22.191Z,57.95
2023-12-18T22:17:07.821Z,62.08
2023-12-18T22:19:53.573Z,55.75
2023-12-18T22:22:39.127Z,63.33
2023-12-18T22:25:24.916Z,57.35
2023-12-18T22:28:10.471Z,67.03
2023-12-18T22:30:56.181Z,74.07
2023-12-18T22:33:41.531Z,62.53
2023-12-18T22:36:27.183Z,64.28
2023-12-18T22:39:13.105Z,59.85
2023-12-18T22:41:58.874Z,71.22
2023-12-18T22:44:44.294Z,67.25
2023-12-18T22:47:29.715Z,59.42
2023-12-18T22:50:15.495Z,64.88
2023-12-18T22:53:00.764Z,65.50
2023-12-18T22:55:46.300Z,57.55
2023-12-18T22:58:31.827Z,60.22
2023-12-18T23:01:17.524Z,59.80
2023-12-18T23:04:03.411Z,63.15
2023-12-18T23:06:50.494Z,65.85
2023-12-18T23:09:38.056Z,59.22
2023-12-18T23:12:23.392Z,64.65
2023-12-18T23:15:09.353Z,62.83
2023-12-18T23:17:55.104Z,65.35
2023-12-18T23:20:40.736Z,64.95
2023-12-18T23:23:26.175Z,63.15
2023-12-18T23:26:11.476Z,61.80
2023-12-18T23:28:57.557Z,60.70
2023-12-18T23:31:43.104Z,64.43
2023-12-18T23:34:28.596Z,58.15
2023-12-18T23:37:13.984Z,65.20
2023-12-18T23:39:59.699Z,66.05
2023-12-18T23:42:45.471Z,60.03
2023-12-18T23:45:31.464Z,75.07
2023-12-18T23:48:17.580Z,66.78
2023-12-18T23:51:03.030Z,76.00
2023-12-18T23:53:48.476Z,80.20
2023-12-18T23:56:33.841Z,77.55
2023-12-18T23:59:19.701Z,83.47
